Eye Of The Wind — GWAK — position and weather

sailwx.info

Track history (hours):
 
Tides and Currents Weather Stations Pressure Air Temp Water Temp Dewpoint Dewpoint Depression Visibility Wind Speed Wind Dir Waves Ship Positions

Eye Of The Wind

Last reported at 2017-Jun-27 09:58 UTC. Time now 2017-Jun-27 10:23 UTC.
Position N 54°22' E 010°09'.

Length 33 m; draft 2.8 m.

Type: Sailing vessel. MMSI: 233789000.

Date/timePositionNaut miles runAvg speedWind from/ knotsBaromVisibWave heightAir tempDewpointWater temp
2017-Jun-27 09:58N 54°22' E 010°09'0 0.0
2017-Jun-27 09:28N 54°22' E 010°09'0 0.0
2017-Jun-27 08:40N 54°22' E 010°09'0 0.0
2017-Jun-27 08:22N 54°22' E 010°09'0 0.0
2017-Jun-27 07:52N 54°22' E 010°09'0 0.0
2017-Jun-27 07:28N 54°22' E 010°09'0 0.0
2017-Jun-27 06:55N 54°22' E 010°09'0 0.0
2017-Jun-27 06:28N 54°22' E 010°09'0 0.0
2017-Jun-27 05:04N 54°22' E 010°09'0 0.0
2017-Jun-27 04:55N 54°22' E 010°09'0 0.0
2017-Jun-27 04:25N 54°22' E 010°09'0 0.0
2017-Jun-27 03:40N 54°22' E 010°09'0 0.0
2017-Jun-27 03:28N 54°22' E 010°09'0 0.0
2017-Jun-27 02:34N 54°22' E 010°09'0 0.1
2017-Jun-27 02:28N 54°22' E 010°09'0 0.0
2017-Jun-27 01:58N 54°22' E 010°09'0 0.0
2017-Jun-27 01:28N 54°22' E 010°09'0 0.0
2017-Jun-27 00:16N 54°22' E 010°09'0 0.0
2017-Jun-26 23:52N 54°22' E 010°09'0 0.0
2017-Jun-26 23:19N 54°22' E 010°09'0 0.0
2017-Jun-26 22:13N 54°22' E 010°09'0 0.0
2017-Jun-26 21:58N 54°22' E 010°09'0 0.0
2017-Jun-26 21:16N 54°22' E 010°09'0 0.0
2017-Jun-26 20:58N 54°22' E 010°09'0 0.0
2017-Jun-26 19:46N 54°22' E 010°09'0 0.0
2017-Jun-26 19:28N 54°22' E 010°09'0 0.0
2017-Jun-26 18:52N 54°22' E 010°09'0 0.0
2017-Jun-26 18:22N 54°22' E 010°09'0 0.0
2017-Jun-26 17:46N 54°22' E 010°09'0 0.0
2017-Jun-26 17:25N 54°22' E 010°09'0 0.0
2017-Jun-26 16:58N 54°22' E 010°09'0 0.0
2017-Jun-26 16:28N 54°22' E 010°09'0 0.0
2017-Jun-26 15:52N 54°22' E 010°09'0 0.0
2017-Jun-26 14:04N 54°22' E 010°09'2 3.0
2017-Jun-26 13:30N 54°20' E 010°10'0 0.6
2017-Jun-26 13:00N 54°21' E 010°10'3 5.3
2017-Jun-26 12:30N 54°23' E 010°12'3 5.1
2017-Jun-26 12:00N 54°25' E 010°13'3 6.0
2017-Jun-26 11:30N 54°28' E 010°15'14 4.5
2017-Jun-26 08:24N 54°40' E 010°02'2 4.1
2017-Jun-26 07:59N 54°41' E 009°59'0 0.0
2017-Jun-26 07:29N 54°41' E 009°59'0 0.0
2017-Jun-26 06:59N 54°41' E 009°59'0 0.0
2017-Jun-26 05:38N 54°41' E 009°59'0 0.0
2017-Jun-26 05:23N 54°41' E 009°59'0 0.0
2017-Jun-26 04:53N 54°41' E 009°59'0 0.0
2017-Jun-26 04:29N 54°41' E 009°59'0 0.0
2017-Jun-26 03:59N 54°41' E 009°59'0 0.0
2017-Jun-26 03:29N 54°41' E 009°59'0 0.0
2017-Jun-26 02:59N 54°41' E 009°59'0 0.0
2017-Jun-26 02:23N 54°41' E 009°59'0 0.0
2017-Jun-26 01:59N 54°41' E 009°59'0 0.0
2017-Jun-26 01:29N 54°41' E 009°59'0 0.0
2017-Jun-26 00:35N 54°41' E 009°59'0 0.0
2017-Jun-26 00:11N 54°41' E 009°59'0 0.0
2017-Jun-25 23:41N 54°41' E 009°59'0 0.0
2017-Jun-25 23:29N 54°41' E 009°59'0 0.0
2017-Jun-25 22:53N 54°41' E 009°59'0 0.0
2017-Jun-25 22:23N 54°41' E 009°59'0 0.0
2017-Jun-25 21:53N 54°41' E 009°59'0 0.0
2017-Jun-25 20:35N 54°41' E 009°59'0 0.0
2017-Jun-25 20:23N 54°41' E 009°59'0 0.0
2017-Jun-25 19:59N 54°41' E 009°59'0 0.5
2017-Jun-25 19:30N 54°41' E 009°60'9 4.4
2017-Jun-25 17:27N 54°33' E 010°08'3 4.9
2017-Jun-25 16:48N 54°30' E 010°10'2 6.7
2017-Jun-25 16:30N 54°29' E 010°13'3 6.2
2017-Jun-25 16:00N 54°26' E 010°13'3 6.8
2017-Jun-25 15:31N 54°23' E 010°10'1 1.5
2017-Jun-25 14:58N 54°22' E 010°09'0 0.0
2017-Jun-25 14:00N 54°22' E 010°09'0 0.0
2017-Jun-25 13:30N 54°22' E 010°09'0 0.0
2017-Jun-25 13:00N 54°22' E 010°09'0 0.0
2017-Jun-25 12:29N 54°22' E 010°09'0 0.0
2017-Jun-25 12:00N 54°22' E 010°09'0 0.0
2017-Jun-25 11:30N 54°22' E 010°09'2 3.9
2017-Jun-25 11:00N 54°23' E 010°12'3 6.2
2017-Jun-25 10:30N 54°26' E 010°14'27 1.5
2017-Jun-24 16:01N 54°51' E 010°31'  
2017-Jun-21 12:12N 54°21' E 010°10'1 2.8
2017-Jun-21 12:00N 54°20' E 010°10'1 1.1
2017-Jun-21 11:30N 54°21' E 010°10'2 3.3
2017-Jun-21 11:01N 54°22' E 010°11'2 2.6
2017-Jun-21 10:26N 54°24' E 010°12'3 2.2
2017-Jun-21 09:11N 54°26' E 010°13'2 5.9
2017-Jun-21 08:52N 54°25' E 010°12'2 4.9
2017-Jun-21 08:30N 54°23' E 010°11'2 2.0
2017-Jun-21 07:42N 54°22' E 010°09'0 0.0
2017-Jun-21 07:30N 54°22' E 010°09'0 0.0
2017-Jun-21 07:00N 54°22' E 010°09'0 0.0
2017-Jun-21 06:30N 54°22' E 010°09'0 0.0
2017-Jun-21 06:00N 54°22' E 010°09'0 0.0
2017-Jun-21 05:30N 54°22' E 010°09'0 0.0
2017-Jun-21 05:00N 54°22' E 010°09'0 0.0
2017-Jun-21 04:30N 54°22' E 010°09'0 0.0
2017-Jun-21 04:00N 54°22' E 010°09'0 0.0
2017-Jun-21 03:30N 54°22' E 010°09'0 0.0
2017-Jun-21 03:00N 54°22' E 010°09'0 0.0
2017-Jun-21 02:29N 54°22' E 010°09'0 0.0
2017-Jun-21 02:00N 54°22' E 010°09'0 0.0
2017-Jun-21 01:30N 54°22' E 010°09'0 0.0
2017-Jun-21 01:00N 54°22' E 010°09'0 0.0
2017-Jun-21 00:30N 54°22' E 010°09'0 0.0
2017-Jun-21 00:00N 54°22' E 010°09'0 0.0
2017-Jun-20 23:30N 54°22' E 010°09'0 0.0
2017-Jun-20 23:00N 54°22' E 010°09'0 0.0
2017-Jun-20 22:30N 54°22' E 010°09'0 0.0
2017-Jun-20 22:00N 54°22' E 010°09'7 1.6
2017-Jun-20 17:46N 54°27' E 010°17'3 4.5
2017-Jun-20 17:04N 54°25' E 010°13'0 6.1
2017-Jun-20 17:00N 54°25' E 010°13'3 5.4
2017-Jun-20 16:30N 54°22' E 010°10'  
Track history (hours):
 
Tides and Currents Weather Stations Pressure Air Temp Water Temp Dewpoint Dewpoint Depression Visibility Wind Speed Wind Dir Waves Ship Positions

Eye Of The Wind

Last reported at 2017-Jun-27 09:58 UTC. Time now 2017-Jun-27 10:23 UTC.
Position N 54°22' E 010°09'.

Length 33 m; draft 2.8 m.

Type: Sailing vessel. MMSI: 233789000.

Date/timePositionNaut miles runAvg speedWind from/ knotsBaromVisibWave heightAir tempDewpointWater temp
2017-Jun-27 09:58N 54°22' E 010°09'0 0.0
2017-Jun-27 09:28N 54°22' E 010°09'0 0.0
2017-Jun-27 08:40N 54°22' E 010°09'0 0.0
2017-Jun-27 08:22N 54°22' E 010°09'0 0.0
2017-Jun-27 07:52N 54°22' E 010°09'0 0.0
2017-Jun-27 07:28N 54°22' E 010°09'0 0.0
2017-Jun-27 06:55N 54°22' E 010°09'0 0.0
2017-Jun-27 06:28N 54°22' E 010°09'0 0.0
2017-Jun-27 05:04N 54°22' E 010°09'0 0.0
2017-Jun-27 04:55N 54°22' E 010°09'0 0.0
2017-Jun-27 04:25N 54°22' E 010°09'0 0.0
2017-Jun-27 03:40N 54°22' E 010°09'0 0.0
2017-Jun-27 03:28N 54°22' E 010°09'0 0.0
2017-Jun-27 02:34N 54°22' E 010°09'0 0.1
2017-Jun-27 02:28N 54°22' E 010°09'0 0.0
2017-Jun-27 01:58N 54°22' E 010°09'0 0.0
2017-Jun-27 01:28N 54°22' E 010°09'0 0.0
2017-Jun-27 00:16N 54°22' E 010°09'0 0.0
2017-Jun-26 23:52N 54°22' E 010°09'0 0.0
2017-Jun-26 23:19N 54°22' E 010°09'0 0.0
2017-Jun-26 22:13N 54°22' E 010°09'0 0.0
2017-Jun-26 21:58N 54°22' E 010°09'0 0.0
2017-Jun-26 21:16N 54°22' E 010°09'0 0.0
2017-Jun-26 20:58N 54°22' E 010°09'0 0.0
2017-Jun-26 19:46N 54°22' E 010°09'0 0.0
2017-Jun-26 19:28N 54°22' E 010°09'0 0.0
2017-Jun-26 18:52N 54°22' E 010°09'0 0.0
2017-Jun-26 18:22N 54°22' E 010°09'0 0.0
2017-Jun-26 17:46N 54°22' E 010°09'0 0.0
2017-Jun-26 17:25N 54°22' E 010°09'0 0.0
2017-Jun-26 16:58N 54°22' E 010°09'0 0.0
2017-Jun-26 16:28N 54°22' E 010°09'0 0.0
2017-Jun-26 15:52N 54°22' E 010°09'0 0.0
2017-Jun-26 14:04N 54°22' E 010°09'2 3.0
2017-Jun-26 13:30N 54°20' E 010°10'0 0.6
2017-Jun-26 13:00N 54°21' E 010°10'3 5.3
2017-Jun-26 12:30N 54°23' E 010°12'3 5.1
2017-Jun-26 12:00N 54°25' E 010°13'3 6.0
2017-Jun-26 11:30N 54°28' E 010°15'14 4.5
2017-Jun-26 08:24N 54°40' E 010°02'2 4.1
2017-Jun-26 07:59N 54°41' E 009°59'0 0.0
2017-Jun-26 07:29N 54°41' E 009°59'0 0.0
2017-Jun-26 06:59N 54°41' E 009°59'0 0.0
2017-Jun-26 05:38N 54°41' E 009°59'0 0.0
2017-Jun-26 05:23N 54°41' E 009°59'0 0.0
2017-Jun-26 04:53N 54°41' E 009°59'0 0.0
2017-Jun-26 04:29N 54°41' E 009°59'0 0.0
2017-Jun-26 03:59N 54°41' E 009°59'0 0.0
2017-Jun-26 03:29N 54°41' E 009°59'0 0.0
2017-Jun-26 02:59N 54°41' E 009°59'0 0.0
2017-Jun-26 02:23N 54°41' E 009°59'0 0.0
2017-Jun-26 01:59N 54°41' E 009°59'0 0.0
2017-Jun-26 01:29N 54°41' E 009°59'0 0.0
2017-Jun-26 00:35N 54°41' E 009°59'0 0.0
2017-Jun-26 00:11N 54°41' E 009°59'0 0.0
2017-Jun-25 23:41N 54°41' E 009°59'0 0.0
2017-Jun-25 23:29N 54°41' E 009°59'0 0.0
2017-Jun-25 22:53N 54°41' E 009°59'0 0.0
2017-Jun-25 22:23N 54°41' E 009°59'0 0.0
2017-Jun-25 21:53N 54°41' E 009°59'0 0.0
2017-Jun-25 20:35N 54°41' E 009°59'0 0.0
2017-Jun-25 20:23N 54°41' E 009°59'0 0.0
2017-Jun-25 19:59N 54°41' E 009°59'0 0.5
2017-Jun-25 19:30N 54°41' E 009°60'9 4.4
2017-Jun-25 17:27N 54°33' E 010°08'3 4.9
2017-Jun-25 16:48N 54°30' E 010°10'2 6.7
2017-Jun-25 16:30N 54°29' E 010°13'3 6.2
2017-Jun-25 16:00N 54°26' E 010°13'3 6.8
2017-Jun-25 15:31N 54°23' E 010°10'1 1.5
2017-Jun-25 14:58N 54°22' E 010°09'0 0.0
2017-Jun-25 14:00N 54°22' E 010°09'0 0.0
2017-Jun-25 13:30N 54°22' E 010°09'0 0.0
2017-Jun-25 13:00N 54°22' E 010°09'0 0.0
2017-Jun-25 12:29N 54°22' E 010°09'0 0.0
2017-Jun-25 12:00N 54°22' E 010°09'0 0.0
2017-Jun-25 11:30N 54°22' E 010°09'2 3.9
2017-Jun-25 11:00N 54°23' E 010°12'3 6.2
2017-Jun-25 10:30N 54°26' E 010°14'27 1.5
2017-Jun-24 16:01N 54°51' E 010°31'  
2017-Jun-21 12:12N 54°21' E 010°10'1 2.8
2017-Jun-21 12:00N 54°20' E 010°10'1 1.1
2017-Jun-21 11:30N 54°21' E 010°10'2 3.3
2017-Jun-21 11:01N 54°22' E 010°11'2 2.6
2017-Jun-21 10:26N 54°24' E 010°12'3 2.2
2017-Jun-21 09:11N 54°26' E 010°13'2 5.9
2017-Jun-21 08:52N 54°25' E 010°12'2 4.9
2017-Jun-21 08:30N 54°23' E 010°11'2 2.0
2017-Jun-21 07:42N 54°22' E 010°09'0 0.0
2017-Jun-21 07:30N 54°22' E 010°09'0 0.0
2017-Jun-21 07:00N 54°22' E 010°09'0 0.0
2017-Jun-21 06:30N 54°22' E 010°09'0 0.0
2017-Jun-21 06:00N 54°22' E 010°09'0 0.0
2017-Jun-21 05:30N 54°22' E 010°09'0 0.0
2017-Jun-21 05:00N 54°22' E 010°09'0 0.0
2017-Jun-21 04:30N 54°22' E 010°09'0 0.0
2017-Jun-21 04:00N 54°22' E 010°09'0 0.0
2017-Jun-21 03:30N 54°22' E 010°09'0 0.0
2017-Jun-21 03:00N 54°22' E 010°09'0 0.0
2017-Jun-21 02:29N 54°22' E 010°09'0 0.0
2017-Jun-21 02:00N 54°22' E 010°09'0 0.0
2017-Jun-21 01:30N 54°22' E 010°09'0 0.0
2017-Jun-21 01:00N 54°22' E 010°09'0 0.0
2017-Jun-21 00:30N 54°22' E 010°09'0 0.0
2017-Jun-21 00:00N 54°22' E 010°09'0 0.0
2017-Jun-20 23:30N 54°22' E 010°09'0 0.0
2017-Jun-20 23:00N 54°22' E 010°09'0 0.0
2017-Jun-20 22:30N 54°22' E 010°09'0 0.0
2017-Jun-20 22:00N 54°22' E 010°09'7 1.6
2017-Jun-20 17:46N 54°27' E 010°17'3 4.5
2017-Jun-20 17:04N 54°25' E 010°13'0 6.1
2017-Jun-20 17:00N 54°25' E 010°13'3 5.4
2017-Jun-20 16:30N 54°22' E 010°10'  

Dump ship's entire track history